createdAt,value
2023-04-26T00:00:28.154Z,8.42
2023-04-26T00:01:28.334Z,8.41
2023-04-26T00:02:28.647Z,8.36
2023-04-26T00:03:28.809Z,8.36
2023-04-26T00:04:29.143Z,8.36
2023-04-26T00:05:29.080Z,8.34
2023-04-26T00:06:29.221Z,8.34
2023-04-26T00:07:29.399Z,8.36
2023-04-26T00:08:29.589Z,8.34
2023-04-26T00:09:29.786Z,8.36
2023-04-26T00:10:29.949Z,8.34
2023-04-26T00:11:30.114Z,8.34
2023-04-26T00:12:30.284Z,8.33
2023-04-26T00:13:30.466Z,8.34
2023-04-26T00:14:30.664Z,8.34
2023-04-26T00:15:30.822Z,8.33
2023-04-26T00:16:31.031Z,8.33
2023-04-26T00:17:31.224Z,8.33
2023-04-26T00:18:31.344Z,8.34
2023-04-26T00:19:31.540Z,8.31
2023-04-26T00:20:31.708Z,8.31
2023-04-26T00:21:31.861Z,8.28
2023-04-26T00:22:32.031Z,8.28
2023-04-26T00:23:32.197Z,8.28
2023-04-26T00:24:32.393Z,8.27
2023-04-26T00:25:32.550Z,8.26
2023-04-26T00:26:32.724Z,8.26
2023-04-26T00:27:32.889Z,8.27
2023-04-26T00:28:33.076Z,8.24
2023-04-26T00:29:33.266Z,8.26
2023-04-26T00:30:33.434Z,8.24
2023-04-26T00:31:33.734Z,8.24
2023-04-26T00:32:33.838Z,8.20
2023-04-26T00:33:33.967Z,8.18
2023-04-26T00:34:34.154Z,8.16
2023-04-26T00:35:34.307Z,8.18
2023-04-26T00:36:34.483Z,8.18
2023-04-26T00:37:34.668Z,8.15
2023-04-26T00:38:34.844Z,8.13
2023-04-26T00:39:35.047Z,8.15
2023-04-26T00:40:35.206Z,8.13
2023-04-26T00:41:35.374Z,8.12
2023-04-26T00:42:35.546Z,8.10
2023-04-26T00:43:35.726Z,8.09
2023-04-26T00:44:35.900Z,8.10
2023-04-26T00:45:36.112Z,8.10
2023-04-26T00:46:36.244Z,8.12
2023-04-26T00:47:36.502Z,8.08
2023-04-26T00:48:36.599Z,8.08
2023-04-26T00:49:36.788Z,8.05
2023-04-26T00:50:36.963Z,8.06
2023-04-26T00:51:37.128Z,8.03
2023-04-26T00:52:37.336Z,8.00
2023-04-26T00:53:37.486Z,8.01
2023-04-26T00:54:37.684Z,7.98
2023-04-26T00:55:37.875Z,7.97
2023-04-26T00:56:38.014Z,7.95
2023-04-26T00:57:38.197Z,7.95
2023-04-26T00:58:38.352Z,7.95
2023-04-26T00:59:38.557Z,7.91
2023-04-26T01:00:38.714Z,7.90
2023-04-26T01:01:38.919Z,7.91
2023-04-26T01:02:39.240Z,7.90
2023-04-26T01:03:39.359Z,7.90
2023-04-26T01:04:39.434Z,7.87
2023-04-26T01:05:39.595Z,7.87
2023-04-26T01:06:39.779Z,7.85
2023-04-26T01:07:40.027Z,7.85
2023-04-26T01:08:40.127Z,7.85
2023-04-26T01:09:40.318Z,7.83
2023-04-26T01:10:40.459Z,7.80
2023-04-26T01:11:40.638Z,7.82
2023-04-26T01:12:40.801Z,7.77
2023-04-26T01:13:40.975Z,7.79
2023-04-26T01:14:41.155Z,7.77
2023-04-26T01:15:41.316Z,7.79
2023-04-26T01:16:41.506Z,7.76
2023-04-26T01:17:41.714Z,7.76
2023-04-26T01:18:41.836Z,7.73
2023-04-26T01:19:42.023Z,7.70
2023-04-26T01:20:42.197Z,7.72
2023-04-26T01:21:42.383Z,7.70
2023-04-26T01:22:42.546Z,7.70
2023-04-26T01:23:42.706Z,7.72
2023-04-26T01:24:42.911Z,7.69
2023-04-26T01:25:43.079Z,7.70
2023-04-26T01:26:43.263Z,7.67
2023-04-26T01:27:43.421Z,7.66
2023-04-26T01:28:43.608Z,7.66
2023-04-26T01:29:43.778Z,7.67
2023-04-26T01:30:44.018Z,7.63
2023-04-26T01:31:44.108Z,7.63
2023-04-26T01:32:44.301Z,7.61
2023-04-26T01:33:44.436Z,7.61
2023-04-26T01:34:44.624Z,7.61
2023-04-26T01:35:44.789Z,7.60
2023-04-26T01:36:44.950Z,7.61
2023-04-26T01:37:45.124Z,7.61
2023-04-26T01:38:45.296Z,7.60
2023-04-26T01:39:45.470Z,7.57
2023-04-26T01:40:45.637Z,7.58
2023-04-26T01:41:45.801Z,7.57
2023-04-26T01:42:46.000Z,7.56
2023-04-26T01:43:46.182Z,7.53
2023-04-26T01:44:46.347Z,7.56
2023-04-26T01:45:46.525Z,7.53
2023-04-26T01:46:46.745Z,7.51
2023-04-26T01:47:46.905Z,7.51
2023-04-26T01:48:47.044Z,7.51
2023-04-26T01:49:47.182Z,7.50
2023-04-26T01:50:47.367Z,7.50
2023-04-26T01:51:47.537Z,7.48
2023-04-26T01:52:47.696Z,7.50
2023-04-26T01:53:47.874Z,7.48
2023-04-26T01:54:48.037Z,7.48
2023-04-26T01:55:48.243Z,7.48
2023-04-26T01:56:48.380Z,7.47
2023-04-26T01:57:48.544Z,7.43
2023-04-26T01:58:48.744Z,7.42
2023-04-26T01:59:48.903Z,7.42
2023-04-26T02:00:49.045Z,7.39
2023-04-26T02:01:49.288Z,7.36
2023-04-26T02:02:49.463Z,7.36
2023-04-26T02:03:49.713Z,7.36
2023-04-26T02:04:49.763Z,7.36
2023-04-26T02:05:49.906Z,7.36
2023-04-26T02:06:50.096Z,7.35
2023-04-26T02:07:50.261Z,7.38
2023-04-26T02:08:50.493Z,7.38
2023-04-26T02:09:50.599Z,7.35
2023-04-26T02:10:50.777Z,7.36
2023-04-26T02:11:50.945Z,7.35
2023-04-26T02:12:51.154Z,7.33
2023-04-26T02:13:51.338Z,7.33
2023-04-26T02:14:51.517Z,7.35
2023-04-26T02:15:51.773Z,7.33
2023-04-26T02:16:51.933Z,7.35
2023-04-26T02:17:52.070Z,7.35
2023-04-26T02:18:52.392Z,7.35
2023-04-26T02:19:52.402Z,7.33
2023-04-26T02:20:52.576Z,7.32
2023-04-26T02:21:52.763Z,7.31
2023-04-26T02:22:52.925Z,7.31
2023-04-26T02:23:53.107Z,7.29
2023-04-26T02:24:53.263Z,7.28
2023-04-26T02:25:53.450Z,7.31
2023-04-26T02:26:53.621Z,7.29
2023-04-26T02:27:53.783Z,7.29
2023-04-26T02:28:54.222Z,7.29
2023-04-26T02:29:54.126Z,7.29
2023-04-26T02:30:54.286Z,7.28
2023-04-26T02:31:54.486Z,7.23
2023-04-26T02:32:54.647Z,7.24
2023-04-26T02:33:54.802Z,7.25
2023-04-26T02:34:54.973Z,7.25
2023-04-26T02:35:55.143Z,7.25
2023-04-26T02:36:55.343Z,7.25
2023-04-26T02:37:55.495Z,7.25
2023-04-26T02:38:55.699Z,7.23
2023-04-26T02:39:55.879Z,7.21
2023-04-26T02:40:56.033Z,7.21
2023-04-26T02:41:56.200Z,7.23
2023-04-26T02:42:56.377Z,7.21
2023-04-26T02:43:56.550Z,7.18
2023-04-26T02:44:56.722Z,7.20
2023-04-26T02:45:56.892Z,7.18
2023-04-26T02:46:57.068Z,7.17
2023-04-26T02:47:57.256Z,7.17
2023-04-26T02:48:57.409Z,7.14
2023-04-26T02:49:57.607Z,7.13
2023-04-26T02:50:57.772Z,7.10
2023-04-26T02:51:57.954Z,7.11
2023-04-26T02:52:58.114Z,7.11
2023-04-26T02:53:58.286Z,7.11
2023-04-26T02:54:58.470Z,7.10
2023-04-26T02:55:58.635Z,7.11
2023-04-26T02:56:58.799Z,7.07
2023-04-26T02:57:58.963Z,7.10
2023-04-26T02:58:59.134Z,7.11
2023-04-26T02:59:59.308Z,7.11
2023-04-26T03:01:01.435Z,7.07
2023-04-26T03:01:59.728Z,7.06
2023-04-26T03:02:59.965Z,7.05
2023-04-26T03:04:00.161Z,7.05
2023-04-26T03:05:00.227Z,7.03
2023-04-26T03:06:00.340Z,7.02
2023-04-26T03:07:00.508Z,7.00
2023-04-26T03:08:00.698Z,7.00
2023-04-26T03:09:00.907Z,7.02
2023-04-26T03:10:01.030Z,7.02
2023-04-26T03:11:01.206Z,7.02
2023-04-26T03:12:01.381Z,6.99
2023-04-26T03:13:01.556Z,7.00
2023-04-26T03:14:01.728Z,7.00
2023-04-26T03:15:01.909Z,6.97
2023-04-26T03:16:02.179Z,6.97
2023-04-26T03:17:02.330Z,6.97
2023-04-26T03:18:02.501Z,6.95
2023-04-26T03:19:02.605Z,6.93
2023-04-26T03:20:03.075Z,6.92
2023-04-26T03:21:02.970Z,6.93
2023-04-26T03:22:03.123Z,6.92
2023-04-26T03:23:03.310Z,6.92
2023-04-26T03:24:03.489Z,6.93
2023-04-26T03:25:03.651Z,6.92
2023-04-26T03:26:03.818Z,6.92
2023-04-26T03:27:04.016Z,6.89
2023-04-26T03:28:04.179Z,6.87
2023-04-26T03:29:04.388Z,6.89
2023-04-26T03:30:04.532Z,6.88
2023-04-26T03:31:04.722Z,6.87
2023-04-26T03:32:05.056Z,6.87
2023-04-26T03:33:05.160Z,6.88
2023-04-26T03:34:05.274Z,6.89
2023-04-26T03:35:05.469Z,6.88
2023-04-26T03:36:05.605Z,6.88
2023-04-26T03:37:05.819Z,6.87
2023-04-26T03:38:05.998Z,6.88
2023-04-26T03:39:06.194Z,6.88
2023-04-26T03:40:06.342Z,6.88
2023-04-26T03:41:06.518Z,6.88
2023-04-26T03:42:06.688Z,6.88
2023-04-26T03:43:06.854Z,6.88
2023-04-26T03:44:07.019Z,6.87
2023-04-26T03:45:07.164Z,6.89
2023-04-26T03:46:07.369Z,6.88
2023-04-26T03:47:07.561Z,6.88
2023-04-26T03:48:07.840Z,6.85
2023-04-26T03:49:07.914Z,6.92
2023-04-26T03:50:08.121Z,6.89
2023-04-26T03:51:08.258Z,6.89
2023-04-26T03:52:08.440Z,6.92
2023-04-26T03:53:08.636Z,6.92
2023-04-26T03:54:08.803Z,6.95
2023-04-26T03:55:08.975Z,6.95
2023-04-26T03:56:09.126Z,6.96
2023-04-26T03:57:09.293Z,6.97
2023-04-26T03:58:09.499Z,6.99
2023-04-26T03:59:09.664Z,7.00
2023-04-26T04:00:09.810Z,7.00
2023-04-26T04:01:09.995Z,7.02
2023-04-26T04:02:10.212Z,7.00
2023-04-26T04:03:10.646Z,7.00
2023-04-26T04:04:10.719Z,7.02
2023-04-26T04:05:10.716Z,6.99
2023-04-26T04:06:10.865Z,6.99
2023-04-26T04:07:11.029Z,7.02
2023-04-26T04:08:11.197Z,7.05
2023-04-26T04:09:11.386Z,7.10
2023-04-26T04:10:11.582Z,7.13
2023-04-26T04:11:11.814Z,7.15
2023-04-26T04:12:11.922Z,7.21
2023-04-26T04:13:12.074Z,7.24
2023-04-26T04:14:12.265Z,7.28
2023-04-26T04:15:12.419Z,7.32
2023-04-26T04:16:12.609Z,7.36
2023-04-26T04:17:12.735Z,7.42
2023-04-26T04:18:12.940Z,7.47
2023-04-26T04:19:13.101Z,7.47
2023-04-26T04:20:13.249Z,7.53
2023-04-26T04:21:13.435Z,7.58
2023-04-26T04:22:13.572Z,7.63
2023-04-26T04:23:13.793Z,7.69
2023-04-26T04:24:13.937Z,7.75
2023-04-26T04:25:14.096Z,7.77
2023-04-26T04:26:14.280Z,7.87
2023-04-26T04:27:14.443Z,7.93
2023-04-26T04:28:14.608Z,7.98
2023-04-26T04:29:14.804Z,8.08
2023-04-26T04:30:14.976Z,8.16
2023-04-26T04:31:15.187Z,8.30
2023-04-26T04:32:15.307Z,8.42
2023-04-26T04:33:15.494Z,8.52
2023-04-26T04:34:15.685Z,8.66
2023-04-26T04:35:15.874Z,8.78
2023-04-26T04:36:16.037Z,8.85
2023-04-26T04:37:16.204Z,8.97
2023-04-26T04:38:16.419Z,9.11
2023-04-26T04:39:16.563Z,9.23
2023-04-26T04:40:16.724Z,9.34
2023-04-26T04:41:16.917Z,9.51
2023-04-26T04:42:17.098Z,9.69
2023-04-26T04:43:17.280Z,9.86
2023-04-26T04:44:17.458Z,9.98
2023-04-26T04:45:17.617Z,10.09
2023-04-26T04:46:17.816Z,10.13
2023-04-26T04:47:17.946Z,10.13
2023-04-26T04:48:18.152Z,10.15
2023-04-26T04:49:18.328Z,10.19
2023-04-26T04:50:18.479Z,10.28
2023-04-26T04:51:18.696Z,10.33
2023-04-26T04:52:19.147Z,10.46
2023-04-26T04:53:19.022Z,10.57
2023-04-26T04:54:19.225Z,10.69
2023-04-26T04:55:19.369Z,10.75
2023-04-26T04:56:19.573Z,10.78
2023-04-26T04:57:19.707Z,10.87
2023-04-26T04:58:19.899Z,10.96
2023-04-26T04:59:20.053Z,11.02
2023-04-26T05:00:20.230Z,11.12
2023-04-26T05:01:20.429Z,11.30
2023-04-26T05:02:20.709Z,11.41
2023-04-26T05:03:20.992Z,11.47
2023-04-26T05:04:21.062Z,11.54
2023-04-26T05:05:21.121Z,11.57
2023-04-26T05:06:21.313Z,11.60
2023-04-26T05:07:22.500Z,11.66
2023-04-26T05:08:21.699Z,11.72
2023-04-26T05:09:21.835Z,11.77
2023-04-26T05:10:22.022Z,11.84
2023-04-26T05:11:22.169Z,11.94
2023-04-26T05:12:22.363Z,12.03
2023-04-26T05:13:22.550Z,12.13
2023-04-26T05:14:22.697Z,12.25
2023-04-26T05:15:22.899Z,12.40
2023-04-26T05:16:23.128Z,12.58
2023-04-26T05:17:23.289Z,12.73
2023-04-26T05:18:23.477Z,12.83
2023-04-26T05:19:23.612Z,12.94
2023-04-26T05:20:23.794Z,13.12
2023-04-26T05:21:23.972Z,13.33
2023-04-26T05:22:24.143Z,13.54
2023-04-26T05:23:24.322Z,13.75
2023-04-26T05:24:24.494Z,13.96
2023-04-26T05:25:24.682Z,14.22
2023-04-26T05:26:24.856Z,14.44
2023-04-26T05:27:25.030Z,14.65
2023-04-26T05:28:25.228Z,14.84
2023-04-26T05:29:25.382Z,14.96
2023-04-26T05:30:25.546Z,15.14
2023-04-26T05:31:25.753Z,15.31
2023-04-26T05:32:25.908Z,15.51
2023-04-26T05:33:26.104Z,15.65
2023-04-26T05:34:26.262Z,15.82
2023-04-26T05:35:26.425Z,15.95
2023-04-26T05:36:29.142Z,16.09
2023-04-26T05:37:26.780Z,16.20
2023-04-26T05:38:26.971Z,16.31
2023-04-26T05:39:27.122Z,16.36
2023-04-26T05:40:27.290Z,16.50
2023-04-26T05:41:27.453Z,16.61
2023-04-26T05:42:27.654Z,16.75
2023-04-26T05:43:27.806Z,16.81
2023-04-26T05:44:27.983Z,16.93
2023-04-26T05:45:28.180Z,17.05
2023-04-26T05:46:28.391Z,17.16
2023-04-26T05:47:28.550Z,17.31
2023-04-26T05:48:28.694Z,17.46
2023-04-26T05:49:28.863Z,17.57
2023-04-26T05:50:29.035Z,17.60
2023-04-26T05:51:29.206Z,17.68
2023-04-26T05:52:29.377Z,17.71
2023-04-26T05:53:29.584Z,17.70
2023-04-26T05:54:29.764Z,17.65
2023-04-26T05:55:29.900Z,17.64
2023-04-26T05:56:30.117Z,17.65
2023-04-26T05:57:30.319Z,17.71
2023-04-26T05:58:30.458Z,17.70
2023-04-26T05:59:30.588Z,17.70
2023-04-26T06:00:30.768Z,17.57
2023-04-26T06:01:30.972Z,17.46
2023-04-26T06:02:31.235Z,17.33
2023-04-26T06:03:31.496Z,17.30
2023-04-26T06:04:31.672Z,17.27
2023-04-26T06:05:31.689Z,17.20
2023-04-26T06:06:31.767Z,17.23
2023-04-26T06:07:31.930Z,17.23
2023-04-26T06:08:32.117Z,17.16
2023-04-26T06:09:32.256Z,17.15
2023-04-26T06:10:32.475Z,17.06
2023-04-26T06:11:32.608Z,16.90
2023-04-26T06:12:32.793Z,16.86
2023-04-26T06:13:32.945Z,16.87
2023-04-26T06:14:33.122Z,17.01
2023-04-26T06:15:33.286Z,17.12
2023-04-26T06:16:33.482Z,17.27
2023-04-26T06:17:33.694Z,17.46
2023-04-26T06:18:33.812Z,17.45
2023-04-26T06:19:33.991Z,17.65
2023-04-26T06:20:34.184Z,17.72
2023-04-26T06:21:34.362Z,17.72
2023-04-26T06:22:34.518Z,17.70
2023-04-26T06:23:34.690Z,17.83
2023-04-26T06:24:34.849Z,18.08
2023-04-26T06:25:35.015Z,18.33
2023-04-26T06:26:35.204Z,18.47
2023-04-26T06:27:35.376Z,18.60
2023-04-26T06:28:35.597Z,18.88
2023-04-26T06:29:35.686Z,19.18
2023-04-26T06:30:35.878Z,19.47
2023-04-26T06:31:36.102Z,19.71
2023-04-26T06:32:36.249Z,19.91
2023-04-26T06:33:36.431Z,20.22
2023-04-26T06:34:36.577Z,20.36
2023-04-26T06:35:36.730Z,20.62
2023-04-26T06:36:36.982Z,20.80
2023-04-26T06:37:37.090Z,20.95
2023-04-26T06:38:37.574Z,21.05
2023-04-26T06:39:37.452Z,21.11
2023-04-26T06:40:37.664Z,21.15
2023-04-26T06:41:37.777Z,21.14
2023-04-26T06:42:37.955Z,21.18
2023-04-26T06:43:38.147Z,21.15
2023-04-26T06:44:38.318Z,21.05
2023-04-26T06:45:38.488Z,21.02
2023-04-26T06:46:38.790Z,20.99
2023-04-26T06:47:38.897Z,20.90
2023-04-26T06:48:39.006Z,20.84
2023-04-26T06:49:39.186Z,20.92
2023-04-26T06:50:40.016Z,21.07
2023-04-26T06:51:39.497Z,21.37
2023-04-26T06:52:39.726Z,21.60
2023-04-26T06:53:39.862Z,21.89
2023-04-26T06:54:53.684Z,22.15
2023-04-26T06:55:41.227Z,22.38
2023-04-26T06:56:40.415Z,22.63
2023-04-26T06:57:40.583Z,22.94
2023-04-26T06:58:40.768Z,23.12
2023-04-26T06:59:40.923Z,23.34
2023-04-26T07:00:41.095Z,23.40
2023-04-26T07:01:41.325Z,23.40
2023-04-26T07:02:41.558Z,23.08
2023-04-26T07:03:41.728Z,23.00
2023-04-26T07:04:41.993Z,23.13
2023-04-26T07:05:41.954Z,23.09
2023-04-26T07:06:42.402Z,22.99
2023-04-26T07:07:42.358Z,22.75
2023-04-26T07:08:42.501Z,22.45
2023-04-26T07:09:42.697Z,22.10
2023-04-26T07:10:42.837Z,21.79
2023-04-26T07:11:43.013Z,21.55
2023-04-26T07:12:43.172Z,21.27
2023-04-26T07:13:43.365Z,20.92
2023-04-26T07:14:43.600Z,20.56
2023-04-26T07:15:43.741Z,20.25
2023-04-26T07:16:44.342Z,20.03
2023-04-26T07:17:44.030Z,19.96
2023-04-26T07:18:44.226Z,20.03
2023-04-26T07:19:44.395Z,19.96
2023-04-26T07:20:44.546Z,20.02
2023-04-26T07:21:44.696Z,20.22
2023-04-26T07:22:44.886Z,20.58
2023-04-26T07:23:45.059Z,21.09
2023-04-26T07:24:45.246Z,21.61
2023-04-26T07:25:45.408Z,22.10
2023-04-26T07:26:45.601Z,22.38
2023-04-26T07:27:45.733Z,22.62
2023-04-26T07:28:45.943Z,22.83
2023-04-26T07:29:46.112Z,23.03
2023-04-26T07:30:46.301Z,23.27
2023-04-26T07:31:46.448Z,23.46
2023-04-26T07:32:46.690Z,23.41
2023-04-26T07:33:46.891Z,23.24
2023-04-26T07:34:47.078Z,23.18
2023-04-26T07:35:47.261Z,23.24
2023-04-26T07:36:47.337Z,23.36
2023-04-26T07:37:47.544Z,23.25
2023-04-26T07:38:47.709Z,23.18
2023-04-26T07:39:47.873Z,23.31
2023-04-26T07:40:48.059Z,23.15
2023-04-26T07:41:48.207Z,22.90
2023-04-26T07:42:48.373Z,22.62
2023-04-26T07:43:48.553Z,22.32
2023-04-26T07:44:48.721Z,21.98
2023-04-26T07:45:48.939Z,21.58
2023-04-26T07:46:49.062Z,21.18
2023-04-26T07:47:49.293Z,20.82
2023-04-26T07:48:49.424Z,20.48
2023-04-26T07:49:49.587Z,20.21
2023-04-26T07:50:49.767Z,19.94
2023-04-26T07:51:49.957Z,19.64
2023-04-26T07:52:50.106Z,19.30
2023-04-26T07:53:50.582Z,19.02
2023-04-26T07:54:50.461Z,18.84
2023-04-26T07:55:50.623Z,18.75
2023-04-26T07:56:51.031Z,18.70
2023-04-26T07:57:50.951Z,18.62
2023-04-26T07:58:51.141Z,18.55
2023-04-26T07:59:51.323Z,18.52
2023-04-26T08:00:51.494Z,18.55
2023-04-26T08:01:51.715Z,18.59
2023-04-26T08:02:52.077Z,18.66
2023-04-26T08:03:52.329Z,18.65
2023-04-26T08:04:52.455Z,18.60
2023-04-26T08:05:52.546Z,18.62
2023-04-26T08:06:52.524Z,18.66
2023-04-26T08:07:52.706Z,18.60
2023-04-26T08:08:52.878Z,18.62
2023-04-26T08:09:53.007Z,18.70
2023-04-26T08:10:53.185Z,18.84
2023-04-26T08:11:53.425Z,18.96
2023-04-26T08:12:53.530Z,19.21
2023-04-26T08:13:54.034Z,19.22
2023-04-26T08:14:53.974Z,19.16
2023-04-26T08:15:54.076Z,19.16
2023-04-26T08:16:54.333Z,19.09
2023-04-26T08:17:54.535Z,18.98
2023-04-26T08:18:54.616Z,18.90
2023-04-26T08:19:54.801Z,18.84
2023-04-26T08:20:54.998Z,18.80
2023-04-26T08:21:55.093Z,18.83
2023-04-26T08:22:55.291Z,19.07
2023-04-26T08:23:55.802Z,19.45
2023-04-26T08:24:55.633Z,19.71
2023-04-26T08:25:55.845Z,19.86
2023-04-26T08:26:55.980Z,19.91
2023-04-26T08:27:56.146Z,19.86
2023-04-26T08:28:56.314Z,20.09
2023-04-26T08:29:56.486Z,20.58
2023-04-26T08:30:56.693Z,21.21
2023-04-26T08:31:56.835Z,22.02
2023-04-26T08:32:57.374Z,22.69
2023-04-26T08:33:57.187Z,22.99
2023-04-26T08:34:57.415Z,22.90
2023-04-26T08:35:57.548Z,22.68
2023-04-26T08:36:57.734Z,22.54
2023-04-26T08:37:57.912Z,22.69
2023-04-26T08:38:58.060Z,23.18
2023-04-26T08:39:58.259Z,23.76
2023-04-26T08:40:58.440Z,24.32
2023-04-26T08:41:58.572Z,24.60
2023-04-26T08:42:58.734Z,24.96
2023-04-26T08:43:58.898Z,24.95
2023-04-26T08:44:59.055Z,25.08
2023-04-26T08:45:59.391Z,24.96
2023-04-26T08:46:59.430Z,24.74
2023-04-26T08:47:59.650Z,24.38
2023-04-26T08:48:59.805Z,23.73
2023-04-26T08:49:59.891Z,23.09
2023-04-26T08:51:00.188Z,22.50
2023-04-26T08:52:00.235Z,21.92
2023-04-26T08:53:00.414Z,21.40
2023-04-26T08:54:02.129Z,20.82
2023-04-26T08:55:00.744Z,20.25
2023-04-26T08:56:00.943Z,19.88
2023-04-26T08:57:01.157Z,19.34
2023-04-26T08:58:01.312Z,19.04
2023-04-26T08:59:01.476Z,18.75
2023-04-26T09:00:01.644Z,18.53
2023-04-26T09:01:01.832Z,18.33
2023-04-26T09:02:02.071Z,18.23
2023-04-26T09:03:02.238Z,18.15
2023-04-26T09:04:02.583Z,18.19
2023-04-26T09:05:02.918Z,18.73
2023-04-26T09:06:04.458Z,19.89
2023-04-26T09:07:02.891Z,21.21
2023-04-26T09:08:03.060Z,22.44
2023-04-26T09:09:03.229Z,23.37
2023-04-26T09:10:03.436Z,23.86
2023-04-26T09:11:03.634Z,23.68
2023-04-26T09:12:03.739Z,23.02
2023-04-26T09:13:03.936Z,22.45
2023-04-26T09:14:04.053Z,21.89
2023-04-26T09:15:04.236Z,21.95
2023-04-26T09:16:05.071Z,22.08
2023-04-26T09:17:04.594Z,22.20
2023-04-26T09:18:05.029Z,22.39
2023-04-26T09:19:05.010Z,22.55
2023-04-26T09:20:07.748Z,22.57
2023-04-26T09:21:05.358Z,22.54
2023-04-26T09:22:05.495Z,22.57
2023-04-26T09:23:05.674Z,22.43
2023-04-26T09:24:05.858Z,22.02
2023-04-26T09:25:06.030Z,21.72
2023-04-26T09:26:06.227Z,21.82
2023-04-26T09:27:06.438Z,22.22
2023-04-26T09:28:06.603Z,23.06
2023-04-26T09:29:06.747Z,23.37
2023-04-26T09:30:06.935Z,23.00
2023-04-26T09:31:07.134Z,22.85
2023-04-26T09:32:07.345Z,22.81
2023-04-26T09:33:07.464Z,22.88
2023-04-26T09:34:07.634Z,22.73
2023-04-26T09:35:07.803Z,23.05
2023-04-26T09:36:07.971Z,23.96
2023-04-26T09:37:08.158Z,24.88
2023-04-26T09:38:12.656Z,25.80
2023-04-26T09:39:09.515Z,26.48
2023-04-26T09:40:08.707Z,27.17
2023-04-26T09:41:08.921Z,27.73
2023-04-26T09:42:09.070Z,28.32
2023-04-26T09:43:09.238Z,28.19
2023-04-26T09:44:09.433Z,28.08
2023-04-26T09:45:09.576Z,27.82
2023-04-26T09:46:09.751Z,27.39
2023-04-26T09:47:09.980Z,27.08
2023-04-26T09:48:10.092Z,26.90
2023-04-26T09:49:10.234Z,26.29
2023-04-26T09:50:10.388Z,26.13
2023-04-26T09:51:10.600Z,26.77
2023-04-26T09:52:10.765Z,27.39
2023-04-26T09:53:10.920Z,27.27
2023-04-26T09:54:11.095Z,26.62
2023-04-26T09:55:16.431Z,25.90
2023-04-26T09:56:12.442Z,25.25
2023-04-26T09:57:11.614Z,24.70
2023-04-26T09:58:11.788Z,24.36
2023-04-26T09:59:11.962Z,24.47
2023-04-26T10:00:12.297Z,24.93
2023-04-26T10:01:12.325Z,25.13
2023-04-26T10:02:12.461Z,24.81
2023-04-26T10:03:12.803Z,24.38
2023-04-26T10:04:12.984Z,23.91
2023-04-26T10:05:13.020Z,23.44
2023-04-26T10:06:13.221Z,23.18
2023-04-26T10:07:13.393Z,22.87
2023-04-26T10:08:13.595Z,22.53
2023-04-26T10:09:13.758Z,22.28
2023-04-26T10:10:13.923Z,22.07
2023-04-26T10:11:14.163Z,21.83
2023-04-26T10:12:14.774Z,21.58
2023-04-26T10:13:14.520Z,21.36
2023-04-26T10:14:14.609Z,21.17
2023-04-26T10:15:14.767Z,20.88
2023-04-26T10:16:14.955Z,20.62
2023-04-26T10:17:15.131Z,20.37
2023-04-26T10:18:15.339Z,20.18
2023-04-26T10:19:15.499Z,20.02
2023-04-26T10:20:15.722Z,19.89
2023-04-26T10:21:15.824Z,19.81
2023-04-26T10:22:16.038Z,19.71
2023-04-26T10:23:17.234Z,19.67
2023-04-26T10:24:16.350Z,19.70
2023-04-26T10:25:16.515Z,19.73
2023-04-26T10:26:16.678Z,19.74
2023-04-26T10:27:16.838Z,19.74
2023-04-26T10:28:17.026Z,19.70
2023-04-26T10:29:17.172Z,19.64
2023-04-26T10:30:17.419Z,19.51
2023-04-26T10:31:17.562Z,19.48
2023-04-26T10:32:17.789Z,19.47
2023-04-26T10:33:17.981Z,19.41
2023-04-26T10:34:18.059Z,19.39
2023-04-26T10:35:18.243Z,19.34
2023-04-26T10:36:18.422Z,19.22
2023-04-26T10:37:18.650Z,19.12
2023-04-26T10:38:18.793Z,18.98
2023-04-26T10:39:18.979Z,18.59
2023-04-26T10:40:19.171Z,18.38
2023-04-26T10:41:19.314Z,18.20
2023-04-26T10:42:19.884Z,18.01
2023-04-26T10:43:19.711Z,17.82
2023-04-26T10:44:19.840Z,17.63
2023-04-26T10:45:20.017Z,17.38
2023-04-26T10:46:20.211Z,17.14
2023-04-26T10:47:20.377Z,16.96
2023-04-26T10:48:20.504Z,16.78
2023-04-26T10:49:20.652Z,16.64
2023-04-26T10:50:20.867Z,16.50
2023-04-26T10:51:21.031Z,16.42
2023-04-26T10:52:21.203Z,16.36
2023-04-26T10:53:21.354Z,16.32
2023-04-26T10:54:21.533Z,16.28
2023-04-26T10:55:21.815Z,16.24
2023-04-26T10:56:21.972Z,16.21
2023-04-26T10:57:22.060Z,16.23
2023-04-26T10:58:22.252Z,16.24
2023-04-26T10:59:39.894Z,16.29
2023-04-26T11:00:23.600Z,16.32
2023-04-26T11:01:22.800Z,16.39
2023-04-26T11:02:23.021Z,16.47
2023-04-26T11:03:23.393Z,16.51
2023-04-26T11:04:23.360Z,16.53
2023-04-26T11:05:25.412Z,16.50
2023-04-26T11:06:23.649Z,16.50
2023-04-26T11:07:23.822Z,16.56
2023-04-26T11:08:24.003Z,16.57
2023-04-26T11:09:24.177Z,16.60
2023-04-26T11:10:24.353Z,16.60
2023-04-26T11:11:24.540Z,16.65
2023-04-26T11:12:24.673Z,16.64
2023-04-26T11:13:24.872Z,16.61
2023-04-26T11:14:25.036Z,16.57
2023-04-26T11:15:25.217Z,16.53
2023-04-26T11:16:25.438Z,16.53
2023-04-26T11:17:25.624Z,16.57
2023-04-26T11:18:25.779Z,16.60
2023-04-26T11:19:25.932Z,16.65
2023-04-26T11:20:26.118Z,16.66
2023-04-26T11:21:26.300Z,16.69
2023-04-26T11:22:26.620Z,16.71
2023-04-26T11:23:26.658Z,16.72
2023-04-26T11:24:26.856Z,16.76
2023-04-26T11:25:27.018Z,16.86
2023-04-26T11:26:27.201Z,16.89
2023-04-26T11:27:27.368Z,16.96
2023-04-26T11:28:27.544Z,17.01
2023-04-26T11:29:27.713Z,17.06
2023-04-26T11:30:27.895Z,17.08
2023-04-26T11:31:28.144Z,17.12
2023-04-26T11:32:28.261Z,17.08
2023-04-26T11:33:28.506Z,17.09
2023-04-26T11:34:28.630Z,17.06
2023-04-26T11:35:28.823Z,17.04
2023-04-26T11:36:28.991Z,17.06
2023-04-26T11:37:29.138Z,17.09
2023-04-26T11:38:29.345Z,17.15
2023-04-26T11:39:29.475Z,17.22
2023-04-26T11:40:29.662Z,17.30
2023-04-26T11:41:29.852Z,17.34
2023-04-26T11:42:30.067Z,17.42
2023-04-26T11:43:30.269Z,17.52
2023-04-26T11:44:30.372Z,17.54
2023-04-26T11:45:30.537Z,17.57
2023-04-26T11:46:30.737Z,17.60
2023-04-26T11:47:30.908Z,17.57
2023-04-26T11:48:31.069Z,17.65
2023-04-26T11:49:31.231Z,17.74
2023-04-26T11:50:31.391Z,17.85
2023-04-26T11:51:32.223Z,17.97
2023-04-26T11:52:31.775Z,18.04
2023-04-26T11:53:31.949Z,18.07
2023-04-26T11:54:32.117Z,18.08
2023-04-26T11:55:32.303Z,18.18
2023-04-26T11:56:32.473Z,18.25
2023-04-26T11:57:32.663Z,18.31
2023-04-26T11:58:32.851Z,18.34
2023-04-26T11:59:32.969Z,18.33
2023-04-26T12:00:33.181Z,18.29
2023-04-26T12:01:33.327Z,18.26
2023-04-26T12:02:33.650Z,18.20
2023-04-26T12:03:33.809Z,18.22
2023-04-26T12:04:34.119Z,18.20
2023-04-26T12:05:34.092Z,18.22
2023-04-26T12:06:34.184Z,18.25
2023-04-26T12:07:34.417Z,18.28
2023-04-26T12:08:34.556Z,18.19
2023-04-26T12:09:34.700Z,18.16
2023-04-26T12:10:34.902Z,18.15
2023-04-26T12:11:35.095Z,18.18
2023-04-26T12:12:35.263Z,18.18
2023-04-26T12:13:35.450Z,18.10
2023-04-26T12:14:35.626Z,18.10
2023-04-26T12:15:35.773Z,18.08
2023-04-26T12:16:35.988Z,18.04
2023-04-26T12:17:36.206Z,18.05
2023-04-26T12:18:36.392Z,18.10
2023-04-26T12:19:36.497Z,18.16
2023-04-26T12:20:36.656Z,18.20
2023-04-26T12:21:36.828Z,18.19
2023-04-26T12:22:37.021Z,18.22
2023-04-26T12:23:37.186Z,18.20
2023-04-26T12:24:37.358Z,18.22
2023-04-26T12:25:37.528Z,18.18
2023-04-26T12:26:37.734Z,18.22
2023-04-26T12:27:37.871Z,18.33
2023-04-26T12:28:38.082Z,18.35
2023-04-26T12:29:38.255Z,18.43
2023-04-26T12:30:38.378Z,18.50
2023-04-26T12:31:38.643Z,18.55
2023-04-26T12:32:38.765Z,18.62
2023-04-26T12:33:38.985Z,18.70
2023-04-26T12:34:39.113Z,18.74
2023-04-26T12:35:39.355Z,18.75
2023-04-26T12:36:39.427Z,18.83
2023-04-26T12:37:39.616Z,18.88
2023-04-26T12:38:39.801Z,18.92
2023-04-26T12:39:39.971Z,18.89
2023-04-26T12:40:40.160Z,18.89
2023-04-26T12:41:40.318Z,18.80
2023-04-26T12:42:40.502Z,18.60
2023-04-26T12:43:40.662Z,18.50
2023-04-26T12:44:40.843Z,18.45
2023-04-26T12:45:41.125Z,18.38
2023-04-26T12:46:41.285Z,18.31
2023-04-26T12:47:41.554Z,18.25
2023-04-26T12:48:41.537Z,18.20
2023-04-26T12:49:41.703Z,18.11
2023-04-26T12:50:41.869Z,18.00
2023-04-26T12:51:42.098Z,17.92
2023-04-26T12:52:42.289Z,17.85
2023-04-26T12:53:42.362Z,17.79
2023-04-26T12:54:42.558Z,17.74
2023-04-26T12:55:42.752Z,17.74
2023-04-26T12:56:42.938Z,17.72
2023-04-26T12:57:43.094Z,17.76
2023-04-26T12:58:43.293Z,17.78
2023-04-26T12:59:43.448Z,17.76
2023-04-26T13:00:44.713Z,17.83
2023-04-26T13:01:43.838Z,17.89
2023-04-26T13:02:44.183Z,17.95
2023-04-26T13:03:44.372Z,18.00